sensor_id;sensor_type;location;lat;lon;timestamp;temperature;humidity
56172;DHT22;42052;41.634;-0.946;2022-09-23T00:01:52;25.80;45.70
56172;DHT22;42052;41.634;-0.946;2022-09-23T00:04:19;25.80;45.20
56172;DHT22;42052;41.634;-0.946;2022-09-23T00:06:45;25.80;45.60
56172;DHT22;42052;41.634;-0.946;2022-09-23T00:09:11;25.80;45.50
56172;DHT22;42052;41.634;-0.946;2022-09-23T00:11:37;25.80;45.70
56172;DHT22;42052;41.634;-0.946;2022-09-23T00:14:03;25.80;45.70
56172;DHT22;42052;41.634;-0.946;2022-09-23T00:16:31;25.80;45.70
56172;DHT22;42052;41.634;-0.946;2022-09-23T00:18:59;25.80;45.80
56172;DHT22;42052;41.634;-0.946;2022-09-23T00:21:26;25.80;46.00
56172;DHT22;42052;41.634;-0.946;2022-09-23T00:23:52;25.80;46.00
56172;DHT22;42052;41.634;-0.946;2022-09-23T00:26:20;25.80;45.90
56172;DHT22;42052;41.634;-0.946;2022-09-23T00:28:47;25.80;45.90
56172;DHT22;42052;41.634;-0.946;2022-09-23T00:31:18;25.90;46.00
56172;DHT22;42052;41.634;-0.946;2022-09-23T00:33:44;25.80;46.00
56172;DHT22;42052;41.634;-0.946;2022-09-23T00:36:13;25.80;46.20
56172;DHT22;42052;41.634;-0.946;2022-09-23T00:38:40;25.80;46.30
56172;DHT22;42052;41.634;-0.946;2022-09-23T00:41:06;25.80;46.30
56172;DHT22;42052;41.634;-0.946;2022-09-23T00:43:51;25.90;46.40
56172;DHT22;42052;41.634;-0.946;2022-09-23T00:46:36;25.80;46.40
56172;DHT22;42052;41.634;-0.946;2022-09-23T00:49:10;25.80;46.40
56172;DHT22;42052;41.634;-0.946;2022-09-23T00:51:40;25.80;46.50
56172;DHT22;42052;41.634;-0.946;2022-09-23T00:54:09;25.80;46.50
56172;DHT22;42052;41.634;-0.946;2022-09-23T00:56:36;25.80;46.80
56172;DHT22;42052;41.634;-0.946;2022-09-23T00:59:05;25.80;46.70
56172;DHT22;42052;41.634;-0.946;2022-09-23T01:01:31;25.80;46.90
56172;DHT22;42052;41.634;-0.946;2022-09-23T01:03:57;25.80;47.20
56172;DHT22;42052;41.634;-0.946;2022-09-23T01:06:23;25.80;47.10
56172;DHT22;42052;41.634;-0.946;2022-09-23T01:08:50;25.80;47.00
56172;DHT22;42052;41.634;-0.946;2022-09-23T01:14:33;25.80;47.10
56172;DHT22;42052;41.634;-0.946;2022-09-23T01:17:18;25.80;47.00
56172;DHT22;42052;41.634;-0.946;2022-09-23T01:25:44;25.80;47.50
56172;DHT22;42052;41.634;-0.946;2022-09-23T01:33:57;25.80;47.70
56172;DHT22;42052;41.634;-0.946;2022-09-23T01:36:45;25.80;47.80
56172;DHT22;42052;41.634;-0.946;2022-09-23T01:42:05;25.80;47.80
56172;DHT22;42052;41.634;-0.946;2022-09-23T01:44:58;25.80;48.00
56172;DHT22;42052;41.634;-0.946;2022-09-23T01:47:36;25.80;47.90
56172;DHT22;42052;41.634;-0.946;2022-09-23T01:50:05;25.80;48.00
56172;DHT22;42052;41.634;-0.946;2022-09-23T01:52:53;25.80;48.00
56172;DHT22;42052;41.634;-0.946;2022-09-23T01:55:29;25.80;48.10
56172;DHT22;42052;41.634;-0.946;2022-09-23T01:58:22;25.80;48.00
56172;DHT22;42052;41.634;-0.946;2022-09-23T02:00:55;25.80;48.80
56172;DHT22;42052;41.634;-0.946;2022-09-23T02:03:46;25.80;48.00
56172;DHT22;42052;41.634;-0.946;2022-09-23T02:06:24;25.70;47.90
56172;DHT22;42052;41.634;-0.946;2022-09-23T02:08:56;25.80;48.10
56172;DHT22;42052;41.634;-0.946;2022-09-23T02:11:23;25.80;48.10
56172;DHT22;42052;41.634;-0.946;2022-09-23T02:16:27;25.80;48.00
56172;DHT22;42052;41.634;-0.946;2022-09-23T02:18:58;25.70;47.90
56172;DHT22;42052;41.634;-0.946;2022-09-23T02:21:29;25.70;47.90
56172;DHT22;42052;41.634;-0.946;2022-09-23T02:24:11;25.80;48.00
56172;DHT22;42052;41.634;-0.946;2022-09-23T02:26:58;25.70;47.80
56172;DHT22;42052;41.634;-0.946;2022-09-23T02:32:18;25.70;48.00
56172;DHT22;42052;41.634;-0.946;2022-09-23T02:38:08;25.70;48.10
56172;DHT22;42052;41.634;-0.946;2022-09-23T02:43:26;25.70;48.00
56172;DHT22;42052;41.634;-0.946;2022-09-23T02:46:03;25.70;48.10
56172;DHT22;42052;41.634;-0.946;2022-09-23T02:48:37;25.70;48.20
56172;DHT22;42052;41.634;-0.946;2022-09-23T02:51:06;25.70;48.10
56172;DHT22;42052;41.634;-0.946;2022-09-23T02:53:33;25.70;48.10
56172;DHT22;42052;41.634;-0.946;2022-09-23T02:56:00;25.80;48.30
56172;DHT22;42052;41.634;-0.946;2022-09-23T02:58:27;25.70;48.20
56172;DHT22;42052;41.634;-0.946;2022-09-23T03:04:09;25.70;48.20
56172;DHT22;42052;41.634;-0.946;2022-09-23T03:12:24;25.70;48.20
56172;DHT22;42052;41.634;-0.946;2022-09-23T03:20:34;25.70;48.30
56172;DHT22;42052;41.634;-0.946;2022-09-23T03:23:10;25.70;48.20
56172;DHT22;42052;41.634;-0.946;2022-09-23T03:25:40;25.70;48.30
56172;DHT22;42052;41.634;-0.946;2022-09-23T03:28:08;25.70;48.30
56172;DHT22;42052;41.634;-0.946;2022-09-23T03:30:35;25.70;48.40
56172;DHT22;42052;41.634;-0.946;2022-09-23T03:33:04;25.70;48.40
56172;DHT22;42052;41.634;-0.946;2022-09-23T03:35:33;25.70;48.40
56172;DHT22;42052;41.634;-0.946;2022-09-23T03:38:23;25.70;48.50
56172;DHT22;42052;41.634;-0.946;2022-09-23T03:40:51;25.70;48.50
56172;DHT22;42052;41.634;-0.946;2022-09-23T03:43:19;25.70;48.50
56172;DHT22;42052;41.634;-0.946;2022-09-23T03:45:46;25.70;48.60
56172;DHT22;42052;41.634;-0.946;2022-09-23T03:48:12;25.70;48.60
56172;DHT22;42052;41.634;-0.946;2022-09-23T03:50:39;25.70;48.60
56172;DHT22;42052;41.634;-0.946;2022-09-23T03:53:06;25.70;48.60
56172;DHT22;42052;41.634;-0.946;2022-09-23T03:55:32;25.60;48.50
56172;DHT22;42052;41.634;-0.946;2022-09-23T03:57:59;25.60;48.60
56172;DHT22;42052;41.634;-0.946;2022-09-23T04:00:25;25.70;48.60
56172;DHT22;42052;41.634;-0.946;2022-09-23T04:02:50;25.70;48.50
56172;DHT22;42052;41.634;-0.946;2022-09-23T04:05:17;25.70;48.50
56172;DHT22;42052;41.634;-0.946;2022-09-23T04:07:43;25.70;48.40
56172;DHT22;42052;41.634;-0.946;2022-09-23T04:10:09;25.70;48.30
56172;DHT22;42052;41.634;-0.946;2022-09-23T04:12:36;25.70;48.40
56172;DHT22;42052;41.634;-0.946;2022-09-23T04:15:02;25.60;48.40
56172;DHT22;42052;41.634;-0.946;2022-09-23T04:17:28;25.70;48.60
56172;DHT22;42052;41.634;-0.946;2022-09-23T04:19:53;25.70;48.60
56172;DHT22;42052;41.634;-0.946;2022-09-23T04:22:20;25.60;48.60
56172;DHT22;42052;41.634;-0.946;2022-09-23T04:24:46;25.60;48.60
56172;DHT22;42052;41.634;-0.946;2022-09-23T04:27:12;25.60;48.70
56172;DHT22;42052;41.634;-0.946;2022-09-23T04:29:37;25.70;48.70
56172;DHT22;42052;41.634;-0.946;2022-09-23T04:32:03;25.60;48.70
56172;DHT22;42052;41.634;-0.946;2022-09-23T04:34:29;25.60;48.70
56172;DHT22;42052;41.634;-0.946;2022-09-23T04:36:55;25.60;48.70
56172;DHT22;42052;41.634;-0.946;2022-09-23T04:39:21;25.60;48.60
56172;DHT22;42052;41.634;-0.946;2022-09-23T04:41:46;25.60;48.60
56172;DHT22;42052;41.634;-0.946;2022-09-23T04:44:13;25.60;48.60
56172;DHT22;42052;41.634;-0.946;2022-09-23T04:46:40;25.60;48.60
56172;DHT22;42052;41.634;-0.946;2022-09-23T04:49:07;25.60;48.60
56172;DHT22;42052;41.634;-0.946;2022-09-23T04:51:33;25.60;48.60
56172;DHT22;42052;41.634;-0.946;2022-09-23T04:53:59;25.60;48.50
56172;DHT22;42052;41.634;-0.946;2022-09-23T04:56:27;25.60;48.50
56172;DHT22;42052;41.634;-0.946;2022-09-23T04:58:54;25.60;48.50
56172;DHT22;42052;41.634;-0.946;2022-09-23T05:01:28;25.60;48.50
56172;DHT22;42052;41.634;-0.946;2022-09-23T05:03:59;25.60;48.50
56172;DHT22;42052;41.634;-0.946;2022-09-23T05:06:28;25.60;48.70
56172;DHT22;42052;41.634;-0.946;2022-09-23T05:08:55;25.60;48.70
56172;DHT22;42052;41.634;-0.946;2022-09-23T05:11:22;25.60;48.70
56172;DHT22;42052;41.634;-0.946;2022-09-23T05:13:49;25.60;48.70
56172;DHT22;42052;41.634;-0.946;2022-09-23T05:16:17;25.60;48.70
56172;DHT22;42052;41.634;-0.946;2022-09-23T05:18:44;25.60;48.70
56172;DHT22;42052;41.634;-0.946;2022-09-23T05:21:15;25.60;48.90
56172;DHT22;42052;41.634;-0.946;2022-09-23T05:23:41;25.60;48.80
56172;DHT22;42052;41.634;-0.946;2022-09-23T05:26:10;25.60;48.60
56172;DHT22;42052;41.634;-0.946;2022-09-23T05:28:37;25.60;48.50
56172;DHT22;42052;41.634;-0.946;2022-09-23T05:31:15;25.60;48.50
56172;DHT22;42052;41.634;-0.946;2022-09-23T05:33:43;25.60;48.50
56172;DHT22;42052;41.634;-0.946;2022-09-23T05:36:11;25.60;48.50
56172;DHT22;42052;41.634;-0.946;2022-09-23T05:38:36;25.60;48.40
56172;DHT22;42052;41.634;-0.946;2022-09-23T05:41:05;25.60;48.50
56172;DHT22;42052;41.634;-0.946;2022-09-23T05:43:32;25.60;48.50
56172;DHT22;42052;41.634;-0.946;2022-09-23T05:46:15;25.60;48.40
56172;DHT22;42052;41.634;-0.946;2022-09-23T05:48:42;25.60;48.40
56172;DHT22;42052;41.634;-0.946;2022-09-23T05:51:14;25.60;48.50
56172;DHT22;42052;41.634;-0.946;2022-09-23T05:53:40;25.60;48.50
56172;DHT22;42052;41.634;-0.946;2022-09-23T05:56:10;25.60;48.60
56172;DHT22;42052;41.634;-0.946;2022-09-23T05:58:36;25.60;48.60
56172;DHT22;42052;41.634;-0.946;2022-09-23T06:01:09;25.50;48.50
56172;DHT22;42052;41.634;-0.946;2022-09-23T06:03:35;25.60;48.60
56172;DHT22;42052;41.634;-0.946;2022-09-23T06:06:01;25.50;48.50
56172;DHT22;42052;41.634;-0.946;2022-09-23T06:08:27;25.60;48.50
56172;DHT22;42052;41.634;-0.946;2022-09-23T06:10:53;25.60;48.50
56172;DHT22;42052;41.634;-0.946;2022-09-23T06:13:18;25.60;48.50
56172;DHT22;42052;41.634;-0.946;2022-09-23T06:15:44;25.50;48.50
56172;DHT22;42052;41.634;-0.946;2022-09-23T06:18:11;25.60;48.60
56172;DHT22;42052;41.634;-0.946;2022-09-23T06:20:37;25.50;48.40
56172;DHT22;42052;41.634;-0.946;2022-09-23T06:23:04;25.50;48.50
56172;DHT22;42052;41.634;-0.946;2022-09-23T06:25:34;25.50;48.50
56172;DHT22;42052;41.634;-0.946;2022-09-23T06:28:01;25.50;48.40
56172;DHT22;42052;41.634;-0.946;2022-09-23T06:30:27;25.60;48.50
56172;DHT22;42052;41.634;-0.946;2022-09-23T06:32:55;25.50;48.50
56172;DHT22;42052;41.634;-0.946;2022-09-23T06:35:24;25.60;48.50
56172;DHT22;42052;41.634;-0.946;2022-09-23T06:37:52;25.50;48.50
56172;DHT22;42052;41.634;-0.946;2022-09-23T06:40:18;25.50;48.60
56172;DHT22;42052;41.634;-0.946;2022-09-23T06:42:44;25.60;48.60
56172;DHT22;42052;41.634;-0.946;2022-09-23T06:45:11;25.50;48.40
56172;DHT22;42052;41.634;-0.946;2022-09-23T06:47:40;25.60;48.50
56172;DHT22;42052;41.634;-0.946;2022-09-23T06:50:07;25.60;48.60
56172;DHT22;42052;41.634;-0.946;2022-09-23T06:52:33;25.50;49.20
56172;DHT22;42052;41.634;-0.946;2022-09-23T06:55:00;25.50;48.60
56172;DHT22;42052;41.634;-0.946;2022-09-23T06:57:30;25.50;48.60
56172;DHT22;42052;41.634;-0.946;2022-09-23T06:59:57;25.50;48.60
56172;DHT22;42052;41.634;-0.946;2022-09-23T07:02:24;25.60;48.60
56172;DHT22;42052;41.634;-0.946;2022-09-23T07:04:50;25.50;48.60
56172;DHT22;42052;41.634;-0.946;2022-09-23T07:07:16;25.50;48.60
56172;DHT22;42052;41.634;-0.946;2022-09-23T07:09:44;25.50;48.80
56172;DHT22;42052;41.634;-0.946;2022-09-23T07:12:10;25.50;48.50
56172;DHT22;42052;41.634;-0.946;2022-09-23T07:14:36;25.50;48.50
56172;DHT22;42052;41.634;-0.946;2022-09-23T07:17:02;25.60;48.50
56172;DHT22;42052;41.634;-0.946;2022-09-23T07:19:28;25.50;48.50
56172;DHT22;42052;41.634;-0.946;2022-09-23T07:21:54;25.50;48.50
56172;DHT22;42052;41.634;-0.946;2022-09-23T07:24:20;25.50;48.60
56172;DHT22;42052;41.634;-0.946;2022-09-23T07:26:47;25.50;48.60
56172;DHT22;42052;41.634;-0.946;2022-09-23T07:29:14;25.50;48.50
56172;DHT22;42052;41.634;-0.946;2022-09-23T07:31:40;25.60;48.60
56172;DHT22;42052;41.634;-0.946;2022-09-23T07:34:08;25.60;48.60
56172;DHT22;42052;41.634;-0.946;2022-09-23T07:36:36;25.50;48.60
56172;DHT22;42052;41.634;-0.946;2022-09-23T07:39:02;25.50;48.70
56172;DHT22;42052;41.634;-0.946;2022-09-23T07:41:32;25.50;48.70
56172;DHT22;42052;41.634;-0.946;2022-09-23T07:43:58;25.50;48.60
56172;DHT22;42052;41.634;-0.946;2022-09-23T07:46:33;25.50;48.70
56172;DHT22;42052;41.634;-0.946;2022-09-23T07:49:00;25.50;48.70
56172;DHT22;42052;41.634;-0.946;2022-09-23T07:51:35;25.50;48.70
56172;DHT22;42052;41.634;-0.946;2022-09-23T07:54:03;25.60;48.80
56172;DHT22;42052;41.634;-0.946;2022-09-23T07:56:32;25.50;48.70
56172;DHT22;42052;41.634;-0.946;2022-09-23T07:58:59;25.50;48.60
56172;DHT22;42052;41.634;-0.946;2022-09-23T08:01:37;25.50;48.80
56172;DHT22;42052;41.634;-0.946;2022-09-23T08:04:28;25.50;48.70
56172;DHT22;42052;41.634;-0.946;2022-09-23T08:07:00;25.60;48.70
56172;DHT22;42052;41.634;-0.946;2022-09-23T08:09:32;25.50;48.70
56172;DHT22;42052;41.634;-0.946;2022-09-23T08:11:58;25.50;48.70
56172;DHT22;42052;41.634;-0.946;2022-09-23T08:14:24;25.50;48.70
56172;DHT22;42052;41.634;-0.946;2022-09-23T08:16:51;25.60;48.70
56172;DHT22;42052;41.634;-0.946;2022-09-23T08:19:17;25.50;48.60
56172;DHT22;42052;41.634;-0.946;2022-09-23T08:21:44;25.50;48.80
56172;DHT22;42052;41.634;-0.946;2022-09-23T08:24:15;25.60;48.90
56172;DHT22;42052;41.634;-0.946;2022-09-23T08:26:42;25.60;48.70
56172;DHT22;42052;41.634;-0.946;2022-09-23T08:29:14;25.50;48.50
56172;DHT22;42052;41.634;-0.946;2022-09-23T08:31:41;25.60;48.60
56172;DHT22;42052;41.634;-0.946;2022-09-23T08:34:07;25.50;48.70
56172;DHT22;42052;41.634;-0.946;2022-09-23T08:36:34;25.60;48.70
56172;DHT22;42052;41.634;-0.946;2022-09-23T08:39:00;25.60;48.70
56172;DHT22;42052;41.634;-0.946;2022-09-23T08:44:20;25.60;48.70
56172;DHT22;42052;41.634;-0.946;2022-09-23T08:46:53;25.60;48.70
56172;DHT22;42052;41.634;-0.946;2022-09-23T08:49:28;25.60;48.60
56172;DHT22;42052;41.634;-0.946;2022-09-23T08:51:58;25.60;48.60
56172;DHT22;42052;41.634;-0.946;2022-09-23T08:54:30;25.60;48.50
56172;DHT22;42052;41.634;-0.946;2022-09-23T08:56:58;25.60;48.50
56172;DHT22;42052;41.634;-0.946;2022-09-23T08:59:34;25.60;48.50
56172;DHT22;42052;41.634;-0.946;2022-09-23T09:02:28;25.60;48.60
56172;DHT22;42052;41.634;-0.946;2022-09-23T09:05:00;25.60;48.50
56172;DHT22;42052;41.634;-0.946;2022-09-23T09:07:31;25.60;48.60
56172;DHT22;42052;41.634;-0.946;2022-09-23T09:10:14;25.60;48.60
56172;DHT22;42052;41.634;-0.946;2022-09-23T09:12:49;25.60;48.50
56172;DHT22;42052;41.634;-0.946;2022-09-23T09:15:21;25.60;48.50
56172;DHT22;42052;41.634;-0.946;2022-09-23T09:18:18;25.60;48.50
56172;DHT22;42052;41.634;-0.946;2022-09-23T09:23:54;25.60;48.40
56172;DHT22;42052;41.634;-0.946;2022-09-23T09:26:25;25.60;48.50
56172;DHT22;42052;41.634;-0.946;2022-09-23T09:28:56;25.60;48.50
56172;DHT22;42052;41.634;-0.946;2022-09-23T09:31:36;25.60;48.40
56172;DHT22;42052;41.634;-0.946;2022-09-23T09:37:09;25.60;48.30
56172;DHT22;42052;41.634;-0.946;2022-09-23T09:39:37;25.60;48.30
56172;DHT22;42052;41.634;-0.946;2022-09-23T09:42:04;25.60;48.30
56172;DHT22;42052;41.634;-0.946;2022-09-23T09:44:35;25.60;48.20
56172;DHT22;42052;41.634;-0.946;2022-09-23T09:49:48;25.60;48.20
56172;DHT22;42052;41.634;-0.946;2022-09-23T09:52:20;25.60;48.10
56172;DHT22;42052;41.634;-0.946;2022-09-23T09:54:51;25.60;48.10
56172;DHT22;42052;41.634;-0.946;2022-09-23T09:57:59;25.60;48.00
56172;DHT22;42052;41.634;-0.946;2022-09-23T10:02:53;25.70;48.20
56172;DHT22;42052;41.634;-0.946;2022-09-23T10:05:45;25.70;48.30
56172;DHT22;42052;41.634;-0.946;2022-09-23T10:08:22;25.70;48.40
56172;DHT22;42052;41.634;-0.946;2022-09-23T10:10:59;25.70;48.40
56172;DHT22;42052;41.634;-0.946;2022-09-23T10:13:26;25.70;48.50
56172;DHT22;42052;41.634;-0.946;2022-09-23T10:15:55;25.70;48.50
56172;DHT22;42052;41.634;-0.946;2022-09-23T10:18:27;25.70;48.40
56172;DHT22;42052;41.634;-0.946;2022-09-23T10:20:59;25.70;48.20
56172;DHT22;42052;41.634;-0.946;2022-09-23T10:23:27;25.70;48.20
56172;DHT22;42052;41.634;-0.946;2022-09-23T10:26:02;25.70;48.30
56172;DHT22;42052;41.634;-0.946;2022-09-23T10:28:46;25.70;48.20
56172;DHT22;42052;41.634;-0.946;2022-09-23T10:33:48;25.70;49.00
56172;DHT22;42052;41.634;-0.946;2022-09-23T10:36:17;25.70;48.20
56172;DHT22;42052;41.634;-0.946;2022-09-23T10:38:52;25.70;48.10
56172;DHT22;42052;41.634;-0.946;2022-09-23T10:41:31;25.70;48.10
56172;DHT22;42052;41.634;-0.946;2022-09-23T10:44:35;25.80;48.20
56172;DHT22;42052;41.634;-0.946;2022-09-23T10:47:32;25.70;48.00
56172;DHT22;42052;41.634;-0.946;2022-09-23T10:56:24;25.70;48.30
56172;DHT22;42052;41.634;-0.946;2022-09-23T11:04:15;25.80;48.40
56172;DHT22;42052;41.634;-0.946;2022-09-23T11:15:25;25.80;48.40
56172;DHT22;42052;41.634;-0.946;2022-09-23T11:18:01;25.80;48.30
56172;DHT22;42052;41.634;-0.946;2022-09-23T11:24:00;25.80;48.20
56172;DHT22;42052;41.634;-0.946;2022-09-23T11:29:29;25.80;48.10
56172;DHT22;42052;41.634;-0.946;2022-09-23T11:35:28;25.80;48.20
56172;DHT22;42052;41.634;-0.946;2022-09-23T11:37:33;25.80;48.10
56172;DHT22;42052;41.634;-0.946;2022-09-23T11:40:05;25.80;48.10
56172;DHT22;42052;41.634;-0.946;2022-09-23T11:42:45;25.80;48.20
56172;DHT22;42052;41.634;-0.946;2022-09-23T11:45:16;25.80;48.10
56172;DHT22;42052;41.634;-0.946;2022-09-23T11:48:12;25.80;48.00
56172;DHT22;42052;41.634;-0.946;2022-09-23T11:51:09;25.80;48.10
56172;DHT22;42052;41.634;-0.946;2022-09-23T11:53:39;25.80;48.10
56172;DHT22;42052;41.634;-0.946;2022-09-23T11:56:33;25.80;48.00
56172;DHT22;42052;41.634;-0.946;2022-09-23T11:59:34;25.80;48.10
56172;DHT22;42052;41.634;-0.946;2022-09-23T12:02:37;25.80;48.00
56172;DHT22;42052;41.634;-0.946;2022-09-23T12:05:13;25.80;48.00
56172;DHT22;42052;41.634;-0.946;2022-09-23T12:08:04;25.80;48.00
56172;DHT22;42052;41.634;-0.946;2022-09-23T12:10:43;25.80;47.80
56172;DHT22;42052;41.634;-0.946;2022-09-23T12:13:22;25.80;48.00
56172;DHT22;42052;41.634;-0.946;2022-09-23T12:18:48;25.80;47.90
56172;DHT22;42052;41.634;-0.946;2022-09-23T12:24:07;25.80;47.90
56172;DHT22;42052;41.634;-0.946;2022-09-23T12:26:41;25.80;47.90
56172;DHT22;42052;41.634;-0.946;2022-09-23T12:29:12;25.80;47.80
56172;DHT22;42052;41.634;-0.946;2022-09-23T12:31:39;25.80;47.60
56172;DHT22;42052;41.634;-0.946;2022-09-23T12:34:41;25.90;47.80
56172;DHT22;42052;41.634;-0.946;2022-09-23T12:37:13;25.80;47.60
56172;DHT22;42052;41.634;-0.946;2022-09-23T12:39:46;25.80;47.60
56172;DHT22;42052;41.634;-0.946;2022-09-23T12:42:16;25.80;47.60
56172;DHT22;42052;41.634;-0.946;2022-09-23T12:44:45;25.90;47.60
56172;DHT22;42052;41.634;-0.946;2022-09-23T12:49:56;25.90;47.60
56172;DHT22;42052;41.634;-0.946;2022-09-23T12:54:50;25.90;47.60
56172;DHT22;42052;41.634;-0.946;2022-09-23T13:02:37;25.90;47.50
56172;DHT22;42052;41.634;-0.946;2022-09-23T13:07:57;25.90;47.40
56172;DHT22;42052;41.634;-0.946;2022-09-23T13:10:56;25.90;47.30
56172;DHT22;42052;41.634;-0.946;2022-09-23T13:13:39;25.90;47.30
56172;DHT22;42052;41.634;-0.946;2022-09-23T13:19:02;25.90;47.30
56172;DHT22;42052;41.634;-0.946;2022-09-23T13:29:49;25.90;47.30
56172;DHT22;42052;41.634;-0.946;2022-09-23T13:32:18;25.90;47.20
56172;DHT22;42052;41.634;-0.946;2022-09-23T13:35:00;25.90;47.20
56172;DHT22;42052;41.634;-0.946;2022-09-23T13:42:48;25.90;47.10
56172;DHT22;42052;41.634;-0.946;2022-09-23T13:45:21;25.90;47.10
56172;DHT22;42052;41.634;-0.946;2022-09-23T13:47:47;25.90;47.00
56172;DHT22;42052;41.634;-0.946;2022-09-23T13:50:22;25.90;47.00
56172;DHT22;42052;41.634;-0.946;2022-09-23T13:52:58;25.90;47.00
56172;DHT22;42052;41.634;-0.946;2022-09-23T13:55:34;25.90;47.00
56172;DHT22;42052;41.634;-0.946;2022-09-23T13:58:21;25.90;47.00
56172;DHT22;42052;41.634;-0.946;2022-09-23T14:00:50;25.90;47.00
56172;DHT22;42052;41.634;-0.946;2022-09-23T14:03:25;25.90;47.00
56172;DHT22;42052;41.634;-0.946;2022-09-23T14:05:53;25.90;47.00
56172;DHT22;42052;41.634;-0.946;2022-09-23T14:08:20;26.00;47.60
56172;DHT22;42052;41.634;-0.946;2022-09-23T14:10:47;26.00;47.50
56172;DHT22;42052;41.634;-0.946;2022-09-23T14:13:20;26.00;47.60
56172;DHT22;42052;41.634;-0.946;2022-09-23T14:15:47;26.00;47.60
56172;DHT22;42052;41.634;-0.946;2022-09-23T14:18:55;26.00;47.80
56172;DHT22;42052;41.634;-0.946;2022-09-23T14:21:31;26.00;47.70
56172;DHT22;42052;41.634;-0.946;2022-09-23T14:26:35;26.00;47.60
56172;DHT22;42052;41.634;-0.946;2022-09-23T14:29:02;26.00;48.50
56172;DHT22;42052;41.634;-0.946;2022-09-23T14:31:29;26.00;47.70
56172;DHT22;42052;41.634;-0.946;2022-09-23T14:33:55;26.00;47.60
56172;DHT22;42052;41.634;-0.946;2022-09-23T14:36:20;26.00;47.60
56172;DHT22;42052;41.634;-0.946;2022-09-23T14:39:08;26.00;47.50
56172;DHT22;42052;41.634;-0.946;2022-09-23T14:41:40;26.00;47.50
56172;DHT22;42052;41.634;-0.946;2022-09-23T14:44:13;26.00;47.50
56172;DHT22;42052;41.634;-0.946;2022-09-23T14:46:57;26.10;47.50
56172;DHT22;42052;41.634;-0.946;2022-09-23T14:49:23;26.10;47.50
56172;DHT22;42052;41.634;-0.946;2022-09-23T14:51:53;26.00;47.40
56172;DHT22;42052;41.634;-0.946;2022-09-23T14:54:35;26.00;47.40
56172;DHT22;42052;41.634;-0.946;2022-09-23T14:57:17;26.00;47.30
56172;DHT22;42052;41.634;-0.946;2022-09-23T15:02:35;26.10;47.30
56172;DHT22;42052;41.634;-0.946;2022-09-23T15:05:14;26.10;47.30
56172;DHT22;42052;41.634;-0.946;2022-09-23T15:07:51;26.10;47.30
56172;DHT22;42052;41.634;-0.946;2022-09-23T15:10:25;26.10;47.20
56172;DHT22;42052;41.634;-0.946;2022-09-23T15:12:53;26.10;47.20
56172;DHT22;42052;41.634;-0.946;2022-09-23T15:15:24;26.10;47.20
56172;DHT22;42052;41.634;-0.946;2022-09-23T15:17:52;26.10;47.20
56172;DHT22;42052;41.634;-0.946;2022-09-23T15:20:24;26.10;47.20
56172;DHT22;42052;41.634;-0.946;2022-09-23T15:22:52;26.10;47.20
56172;DHT22;42052;41.634;-0.946;2022-09-23T15:25:35;26.10;47.10
56172;DHT22;42052;41.634;-0.946;2022-09-23T15:30:36;26.10;47.10
56172;DHT22;42052;41.634;-0.946;2022-09-23T15:33:02;26.10;47.10
56172;DHT22;42052;41.634;-0.946;2022-09-23T15:35:29;26.10;46.90
56172;DHT22;42052;41.634;-0.946;2022-09-23T15:37:58;26.10;47.10
56172;DHT22;42052;41.634;-0.946;2022-09-23T15:40:33;26.10;47.00
56172;DHT22;42052;41.634;-0.946;2022-09-23T15:43:08;26.10;46.90
56172;DHT22;42052;41.634;-0.946;2022-09-23T15:45:37;26.10;47.40
56172;DHT22;42052;41.634;-0.946;2022-09-23T15:48:26;26.10;47.80
56172;DHT22;42052;41.634;-0.946;2022-09-23T15:50:53;26.10;47.40
56172;DHT22;42052;41.634;-0.946;2022-09-23T15:53:23;26.20;47.80
56172;DHT22;42052;41.634;-0.946;2022-09-23T15:55:50;26.20;47.50
56172;DHT22;42052;41.634;-0.946;2022-09-23T15:58:20;26.20;47.50
56172;DHT22;42052;41.634;-0.946;2022-09-23T16:00:48;26.10;47.50
56172;DHT22;42052;41.634;-0.946;2022-09-23T16:03:17;26.20;47.40
56172;DHT22;42052;41.634;-0.946;2022-09-23T16:05:46;26.10;47.30
56172;DHT22;42052;41.634;-0.946;2022-09-23T16:08:13;26.20;47.30
56172;DHT22;42052;41.634;-0.946;2022-09-23T16:10:40;26.20;47.30
56172;DHT22;42052;41.634;-0.946;2022-09-23T16:13:10;26.10;47.20
56172;DHT22;42052;41.634;-0.946;2022-09-23T16:15:37;26.20;47.30
56172;DHT22;42052;41.634;-0.946;2022-09-23T16:18:06;26.10;47.20
56172;DHT22;42052;41.634;-0.946;2022-09-23T16:20:35;26.10;47.20
56172;DHT22;42052;41.634;-0.946;2022-09-23T16:23:46;26.10;47.20
56172;DHT22;42052;41.634;-0.946;2022-09-23T16:26:06;26.20;47.20
56172;DHT22;42052;41.634;-0.946;2022-09-23T16:28:33;26.20;47.20
56172;DHT22;42052;41.634;-0.946;2022-09-23T16:30:59;26.20;47.20
56172;DHT22;42052;41.634;-0.946;2022-09-23T16:33:25;26.20;47.20
56172;DHT22;42052;41.634;-0.946;2022-09-23T16:35:52;26.10;47.10
56172;DHT22;42052;41.634;-0.946;2022-09-23T16:38:18;26.20;47.20
56172;DHT22;42052;41.634;-0.946;2022-09-23T16:40:45;26.20;47.20
56172;DHT22;42052;41.634;-0.946;2022-09-23T16:43:11;26.20;47.20
56172;DHT22;42052;41.634;-0.946;2022-09-23T16:45:37;26.10;47.00
56172;DHT22;42052;41.634;-0.946;2022-09-23T16:48:04;26.20;47.10
56172;DHT22;42052;41.634;-0.946;2022-09-23T16:50:30;26.10;47.10
56172;DHT22;42052;41.634;-0.946;2022-09-23T16:52:56;26.20;47.10
56172;DHT22;42052;41.634;-0.946;2022-09-23T16:55:24;26.20;47.10
56172;DHT22;42052;41.634;-0.946;2022-09-23T16:57:52;26.20;47.00
56172;DHT22;42052;41.634;-0.946;2022-09-23T17:00:19;26.20;47.10
56172;DHT22;42052;41.634;-0.946;2022-09-23T17:03:04;26.20;47.00
56172;DHT22;42052;41.634;-0.946;2022-09-23T17:05:49;26.20;47.00
56172;DHT22;42052;41.634;-0.946;2022-09-23T17:08:16;26.20;47.00
56172;DHT22;42052;41.634;-0.946;2022-09-23T17:10:43;26.20;47.00
56172;DHT22;42052;41.634;-0.946;2022-09-23T17:13:10;26.20;47.00
56172;DHT22;42052;41.634;-0.946;2022-09-23T17:15:38;26.20;47.00
56172;DHT22;42052;41.634;-0.946;2022-09-23T17:18:06;26.20;47.00
56172;DHT22;42052;41.634;-0.946;2022-09-23T17:20:32;26.20;47.00
56172;DHT22;42052;41.634;-0.946;2022-09-23T17:22:59;26.20;47.00
56172;DHT22;42052;41.634;-0.946;2022-09-23T17:25:25;26.20;47.00
56172;DHT22;42052;41.634;-0.946;2022-09-23T17:27:51;26.20;47.70
56172;DHT22;42052;41.634;-0.946;2022-09-23T17:30:17;26.20;47.00
56172;DHT22;42052;41.634;-0.946;2022-09-23T17:32:43;26.20;47.00
56172;DHT22;42052;41.634;-0.946;2022-09-23T17:35:09;26.20;46.90
56172;DHT22;42052;41.634;-0.946;2022-09-23T17:37:36;26.20;46.90
56172;DHT22;42052;41.634;-0.946;2022-09-23T17:40:02;26.20;46.90
56172;DHT22;42052;41.634;-0.946;2022-09-23T17:42:28;26.20;46.90
56172;DHT22;42052;41.634;-0.946;2022-09-23T17:44:54;26.20;46.90
56172;DHT22;42052;41.634;-0.946;2022-09-23T17:47:21;26.20;46.90
56172;DHT22;42052;41.634;-0.946;2022-09-23T17:49:47;26.20;46.90
56172;DHT22;42052;41.634;-0.946;2022-09-23T17:52:15;26.30;47.00
56172;DHT22;42052;41.634;-0.946;2022-09-23T17:54:41;26.30;46.90